アイウン の空港の天気 - METARとTAF

アイウン/ハッサン空港 ( GMML / EUN ) - 西サハラ アイウン
飛行場実況気象(Metar)
観測時間-
風向・風速- -
視程-
天気現象-
-
気温-
湿度-
気圧-
METAR-
過去の天気等 Google飛行場航空写真 Wunderground天気予報

過去48時間のMETAR

飛行場予報(TAF)
発表時間: 7/12 12:00 CET (7/12 11:00 UTC)
予報対象時間: 12日13時 CET ~ 13日19時 CET
風向・風速北北東 7m/s
視程8000m
なし
13日1時 CET ~ 13日3時 CET に徐々に
全天の8割程度の雲 雲底高度 300m
13日9時 CET ~ 13日11時 CET に徐々に
全天の4割程度の雲 雲底高度 910m
TAF GMML 121100Z 1212/1318 03013KT 8000 NSC
BECMG 1300/1302 BKN010
BECMG 1308/1310 SCT030